sensor_id;sensor_type;location;lat;lon;timestamp;P1;durP1;ratioP1;P2;durP2;ratioP2
80332;SDS011;69652;51.864;-2.246;2023-07-16T00:02:01;36.72;;;13.98;;
80332;SDS011;69652;51.864;-2.246;2023-07-16T00:04:26;28.02;;;8.63;;
80332;SDS011;69652;51.864;-2.246;2023-07-16T00:06:52;37.70;;;13.35;;
80332;SDS011;69652;51.864;-2.246;2023-07-16T00:09:17;30.10;;;10.35;;
80332;SDS011;69652;51.864;-2.246;2023-07-16T00:11:43;34.05;;;9.32;;
80332;SDS011;69652;51.864;-2.246;2023-07-16T00:14:10;53.67;;;15.75;;
80332;SDS011;69652;51.864;-2.246;2023-07-16T00:16:37;30.70;;;6.30;;
80332;SDS011;69652;51.864;-2.246;2023-07-16T00:19:02;31.45;;;8.93;;
80332;SDS011;69652;51.864;-2.246;2023-07-16T00:21:28;53.10;;;22.63;;
80332;SDS011;69652;51.864;-2.246;2023-07-16T00:23:54;29.60;;;9.15;;
80332;SDS011;69652;51.864;-2.246;2023-07-16T00:26:21;34.85;;;11.25;;
80332;SDS011;69652;51.864;-2.246;2023-07-16T00:28:46;30.17;;;12.43;;
80332;SDS011;69652;51.864;-2.246;2023-07-16T00:31:12;25.95;;;6.70;;
80332;SDS011;69652;51.864;-2.246;2023-07-16T00:33:37;40.17;;;16.30;;
80332;SDS011;69652;51.864;-2.246;2023-07-16T00:36:03;69.20;;;36.70;;
80332;SDS011;69652;51.864;-2.246;2023-07-16T00:38:30;55.35;;;27.48;;
80332;SDS011;69652;51.864;-2.246;2023-07-16T00:40:56;30.65;;;11.70;;
80332;SDS011;69652;51.864;-2.246;2023-07-16T00:43:21;32.75;;;8.93;;
80332;SDS011;69652;51.864;-2.246;2023-07-16T00:45:47;31.60;;;12.10;;
80332;SDS011;69652;51.864;-2.246;2023-07-16T00:48:14;30.15;;;11.88;;
80332;SDS011;69652;51.864;-2.246;2023-07-16T00:50:40;30.85;;;12.07;;
80332;SDS011;69652;51.864;-2.246;2023-07-16T00:53:07;38.40;;;16.52;;
80332;SDS011;69652;51.864;-2.246;2023-07-16T00:55:34;35.47;;;13.05;;
80332;SDS011;69652;51.864;-2.246;2023-07-16T00:58:05;44.63;;;17.90;;
80332;SDS011;69652;51.864;-2.246;2023-07-16T01:00:35;99.13;;;42.05;;
80332;SDS011;69652;51.864;-2.246;2023-07-16T01:03:02;41.20;;;18.77;;
80332;SDS011;69652;51.864;-2.246;2023-07-16T01:11:02;31.83;;;6.68;;
80332;SDS011;69652;51.864;-2.246;2023-07-16T01:13:28;35.00;;;15.10;;
80332;SDS011;69652;51.864;-2.246;2023-07-16T01:15:55;29.58;;;8.32;;
80332;SDS011;69652;51.864;-2.246;2023-07-16T01:18:20;52.25;;;20.95;;
80332;SDS011;69652;51.864;-2.246;2023-07-16T01:20:46;27.33;;;8.60;;
80332;SDS011;69652;51.864;-2.246;2023-07-16T01:26:00;31.47;;;11.30;;
80332;SDS011;69652;51.864;-2.246;2023-07-16T01:31:15;48.80;;;23.75;;
80332;SDS011;69652;51.864;-2.246;2023-07-16T01:33:42;20.98;;;5.88;;
80332;SDS011;69652;51.864;-2.246;2023-07-16T01:36:08;48.83;;;23.05;;
80332;SDS011;69652;51.864;-2.246;2023-07-16T01:38:34;26.17;;;9.45;;
80332;SDS011;69652;51.864;-2.246;2023-07-16T01:41:01;40.20;;;15.75;;
80332;SDS011;69652;51.864;-2.246;2023-07-16T01:43:27;21.67;;;4.85;;
80332;SDS011;69652;51.864;-2.246;2023-07-16T01:45:52;24.52;;;7.43;;
80332;SDS011;69652;51.864;-2.246;2023-07-16T01:50:57;26.30;;;10.40;;
80332;SDS011;69652;51.864;-2.246;2023-07-16T01:53:23;26.35;;;8.77;;
80332;SDS011;69652;51.864;-2.246;2023-07-16T01:55:49;21.45;;;6.80;;
80332;SDS011;69652;51.864;-2.246;2023-07-16T01:58:14;21.00;;;7.68;;
80332;SDS011;69652;51.864;-2.246;2023-07-16T02:00:39;19.15;;;6.88;;
80332;SDS011;69652;51.864;-2.246;2023-07-16T02:03:05;19.02;;;5.20;;
80332;SDS011;69652;51.864;-2.246;2023-07-16T02:05:31;15.40;;;5.75;;
80332;SDS011;69652;51.864;-2.246;2023-07-16T02:07:56;18.50;;;6.32;;
80332;SDS011;69652;51.864;-2.246;2023-07-16T02:10:22;15.02;;;3.88;;
80332;SDS011;69652;51.864;-2.246;2023-07-16T02:12:47;25.88;;;11.43;;
80332;SDS011;69652;51.864;-2.246;2023-07-16T02:15:13;16.75;;;4.50;;
80332;SDS011;69652;51.864;-2.246;2023-07-16T02:17:38;15.13;;;4.15;;
80332;SDS011;69652;51.864;-2.246;2023-07-16T02:20:04;17.92;;;5.07;;
80332;SDS011;69652;51.864;-2.246;2023-07-16T02:22:30;34.03;;;13.05;;
80332;SDS011;69652;51.864;-2.246;2023-07-16T02:24:56;29.33;;;11.38;;
80332;SDS011;69652;51.864;-2.246;2023-07-16T02:27:21;26.70;;;7.00;;
80332;SDS011;69652;51.864;-2.246;2023-07-16T02:29:47;17.10;;;5.20;;
80332;SDS011;69652;51.864;-2.246;2023-07-16T02:32:12;15.60;;;4.13;;
80332;SDS011;69652;51.864;-2.246;2023-07-16T02:34:38;15.88;;;3.53;;
80332;SDS011;69652;51.864;-2.246;2023-07-16T02:37:03;17.98;;;3.75;;
80332;SDS011;69652;51.864;-2.246;2023-07-16T02:39:29;17.08;;;4.20;;
80332;SDS011;69652;51.864;-2.246;2023-07-16T02:41:55;26.42;;;7.28;;
80332;SDS011;69652;51.864;-2.246;2023-07-16T02:44:20;22.38;;;4.80;;
80332;SDS011;69652;51.864;-2.246;2023-07-16T02:46:45;24.70;;;7.10;;
80332;SDS011;69652;51.864;-2.246;2023-07-16T02:49:11;19.42;;;7.82;;
80332;SDS011;69652;51.864;-2.246;2023-07-16T02:51:36;28.00;;;6.70;;
80332;SDS011;69652;51.864;-2.246;2023-07-16T02:54:02;40.35;;;15.45;;
80332;SDS011;69652;51.864;-2.246;2023-07-16T02:56:27;31.80;;;15.52;;
80332;SDS011;69652;51.864;-2.246;2023-07-16T02:58:53;22.40;;;5.35;;
80332;SDS011;69652;51.864;-2.246;2023-07-16T03:01:18;12.50;;;3.35;;
80332;SDS011;69652;51.864;-2.246;2023-07-16T03:03:43;17.88;;;3.30;;
80332;SDS011;69652;51.864;-2.246;2023-07-16T03:06:09;14.50;;;3.03;;
80332;SDS011;69652;51.864;-2.246;2023-07-16T03:08:34;17.80;;;3.47;;
80332;SDS011;69652;51.864;-2.246;2023-07-16T03:11:00;13.02;;;2.92;;
80332;SDS011;69652;51.864;-2.246;2023-07-16T03:13:25;13.70;;;2.55;;
80332;SDS011;69652;51.864;-2.246;2023-07-16T03:15:51;10.68;;;2.75;;
80332;SDS011;69652;51.864;-2.246;2023-07-16T03:18:19;14.95;;;3.58;;
80332;SDS011;69652;51.864;-2.246;2023-07-16T03:20:45;17.92;;;2.72;;
80332;SDS011;69652;51.864;-2.246;2023-07-16T03:23:10;19.10;;;3.25;;
80332;SDS011;69652;51.864;-2.246;2023-07-16T03:25:36;16.00;;;2.83;;
80332;SDS011;69652;51.864;-2.246;2023-07-16T03:28:01;9.18;;;2.30;;
80332;SDS011;69652;51.864;-2.246;2023-07-16T03:30:27;20.33;;;2.70;;
80332;SDS011;69652;51.864;-2.246;2023-07-16T03:32:52;13.23;;;2.38;;
80332;SDS011;69652;51.864;-2.246;2023-07-16T03:35:18;13.40;;;2.35;;
80332;SDS011;69652;51.864;-2.246;2023-07-16T03:37:44;19.17;;;3.10;;
80332;SDS011;69652;51.864;-2.246;2023-07-16T03:40:16;22.50;;;3.03;;
80332;SDS011;69652;51.864;-2.246;2023-07-16T03:42:43;23.23;;;10.30;;
80332;SDS011;69652;51.864;-2.246;2023-07-16T03:45:09;28.85;;;3.60;;
80332;SDS011;69652;51.864;-2.246;2023-07-16T03:47:35;16.77;;;4.30;;
80332;SDS011;69652;51.864;-2.246;2023-07-16T03:50:01;18.25;;;3.40;;
80332;SDS011;69652;51.864;-2.246;2023-07-16T03:52:27;15.77;;;2.78;;
80332;SDS011;69652;51.864;-2.246;2023-07-16T03:54:54;15.75;;;3.03;;
80332;SDS011;69652;51.864;-2.246;2023-07-16T03:57:20;19.15;;;3.10;;
80332;SDS011;69652;51.864;-2.246;2023-07-16T03:59:45;18.60;;;3.47;;
80332;SDS011;69652;51.864;-2.246;2023-07-16T04:02:10;15.35;;;2.85;;
80332;SDS011;69652;51.864;-2.246;2023-07-16T04:04:36;16.15;;;2.80;;
80332;SDS011;69652;51.864;-2.246;2023-07-16T04:07:01;20.48;;;2.92;;
80332;SDS011;69652;51.864;-2.246;2023-07-16T04:09:27;15.60;;;2.42;;
80332;SDS011;69652;51.864;-2.246;2023-07-16T04:11:52;13.25;;;2.83;;
80332;SDS011;69652;51.864;-2.246;2023-07-16T04:14:18;23.25;;;3.83;;
80332;SDS011;69652;51.864;-2.246;2023-07-16T04:16:43;21.48;;;3.25;;
80332;SDS011;69652;51.864;-2.246;2023-07-16T04:19:09;16.60;;;2.50;;
80332;SDS011;69652;51.864;-2.246;2023-07-16T04:21:34;19.02;;;2.80;;
80332;SDS011;69652;51.864;-2.246;2023-07-16T04:24:01;16.52;;;2.95;;
80332;SDS011;69652;51.864;-2.246;2023-07-16T04:26:27;14.32;;;2.35;;
80332;SDS011;69652;51.864;-2.246;2023-07-16T04:28:53;20.10;;;3.28;;
80332;SDS011;69652;51.864;-2.246;2023-07-16T04:31:18;15.85;;;3.33;;
80332;SDS011;69652;51.864;-2.246;2023-07-16T04:33:44;22.92;;;5.18;;
80332;SDS011;69652;51.864;-2.246;2023-07-16T04:36:09;17.52;;;2.85;;
80332;SDS011;69652;51.864;-2.246;2023-07-16T04:38:34;20.23;;;3.55;;
80332;SDS011;69652;51.864;-2.246;2023-07-16T04:41:00;19.60;;;2.88;;
80332;SDS011;69652;51.864;-2.246;2023-07-16T04:43:25;19.52;;;3.45;;
80332;SDS011;69652;51.864;-2.246;2023-07-16T04:45:51;15.60;;;3.38;;
80332;SDS011;69652;51.864;-2.246;2023-07-16T04:48:16;17.55;;;3.15;;
80332;SDS011;69652;51.864;-2.246;2023-07-16T04:50:42;11.57;;;2.70;;
80332;SDS011;69652;51.864;-2.246;2023-07-16T04:53:07;21.10;;;3.30;;
80332;SDS011;69652;51.864;-2.246;2023-07-16T04:55:36;14.35;;;3.25;;
80332;SDS011;69652;51.864;-2.246;2023-07-16T04:58:03;17.30;;;2.65;;
80332;SDS011;69652;51.864;-2.246;2023-07-16T05:00:28;16.88;;;2.80;;
80332;SDS011;69652;51.864;-2.246;2023-07-16T05:02:54;13.25;;;2.40;;
80332;SDS011;69652;51.864;-2.246;2023-07-16T05:05:19;20.75;;;2.78;;
80332;SDS011;69652;51.864;-2.246;2023-07-16T05:07:45;17.83;;;2.83;;
80332;SDS011;69652;51.864;-2.246;2023-07-16T05:10:10;10.55;;;2.83;;
80332;SDS011;69652;51.864;-2.246;2023-07-16T05:12:36;12.63;;;2.72;;
80332;SDS011;69652;51.864;-2.246;2023-07-16T05:15:01;18.85;;;3.33;;
80332;SDS011;69652;51.864;-2.246;2023-07-16T05:17:27;20.65;;;3.22;;
80332;SDS011;69652;51.864;-2.246;2023-07-16T05:19:52;13.77;;;2.55;;
80332;SDS011;69652;51.864;-2.246;2023-07-16T05:22:18;10.73;;;2.25;;
80332;SDS011;69652;51.864;-2.246;2023-07-16T05:24:43;18.55;;;3.47;;
80332;SDS011;69652;51.864;-2.246;2023-07-16T05:27:09;11.35;;;2.88;;
80332;SDS011;69652;51.864;-2.246;2023-07-16T05:29:35;19.05;;;3.00;;
80332;SDS011;69652;51.864;-2.246;2023-07-16T05:32:00;20.55;;;3.30;;
80332;SDS011;69652;51.864;-2.246;2023-07-16T05:34:26;14.70;;;2.80;;
80332;SDS011;69652;51.864;-2.246;2023-07-16T05:36:53;16.80;;;2.90;;
80332;SDS011;69652;51.864;-2.246;2023-07-16T05:39:19;15.02;;;2.58;;
80332;SDS011;69652;51.864;-2.246;2023-07-16T05:41:45;11.73;;;2.30;;
80332;SDS011;69652;51.864;-2.246;2023-07-16T05:44:11;12.52;;;2.10;;
80332;SDS011;69652;51.864;-2.246;2023-07-16T05:46:36;8.15;;;2.03;;
80332;SDS011;69652;51.864;-2.246;2023-07-16T05:49:02;13.73;;;2.70;;
80332;SDS011;69652;51.864;-2.246;2023-07-16T05:51:27;10.55;;;2.38;;
80332;SDS011;69652;51.864;-2.246;2023-07-16T05:53:52;18.55;;;3.03;;
80332;SDS011;69652;51.864;-2.246;2023-07-16T05:56:18;12.55;;;2.97;;
80332;SDS011;69652;51.864;-2.246;2023-07-16T05:58:43;8.32;;;2.20;;
80332;SDS011;69652;51.864;-2.246;2023-07-16T06:01:09;18.75;;;2.63;;
80332;SDS011;69652;51.864;-2.246;2023-07-16T06:03:34;14.95;;;2.72;;
80332;SDS011;69652;51.864;-2.246;2023-07-16T06:06:00;10.48;;;2.15;;
80332;SDS011;69652;51.864;-2.246;2023-07-16T06:08:25;12.05;;;1.95;;
80332;SDS011;69652;51.864;-2.246;2023-07-16T06:10:51;15.00;;;2.60;;
80332;SDS011;69652;51.864;-2.246;2023-07-16T06:13:17;13.07;;;1.92;;
80332;SDS011;69652;51.864;-2.246;2023-07-16T06:15:42;14.02;;;2.35;;
80332;SDS011;69652;51.864;-2.246;2023-07-16T06:18:09;12.45;;;2.30;;
80332;SDS011;69652;51.864;-2.246;2023-07-16T06:20:35;9.80;;;2.15;;
80332;SDS011;69652;51.864;-2.246;2023-07-16T06:23:00;13.57;;;2.22;;
80332;SDS011;69652;51.864;-2.246;2023-07-16T06:25:25;13.52;;;2.28;;
80332;SDS011;69652;51.864;-2.246;2023-07-16T06:27:51;10.93;;;2.42;;
80332;SDS011;69652;51.864;-2.246;2023-07-16T06:30:16;15.68;;;3.70;;
80332;SDS011;69652;51.864;-2.246;2023-07-16T06:32:42;10.93;;;2.10;;
80332;SDS011;69652;51.864;-2.246;2023-07-16T06:35:08;11.25;;;2.22;;
80332;SDS011;69652;51.864;-2.246;2023-07-16T06:37:34;15.65;;;1.98;;
80332;SDS011;69652;51.864;-2.246;2023-07-16T06:39:59;10.45;;;2.05;;
80332;SDS011;69652;51.864;-2.246;2023-07-16T06:42:25;8.48;;;2.08;;
80332;SDS011;69652;51.864;-2.246;2023-07-16T06:44:50;11.00;;;1.98;;
80332;SDS011;69652;51.864;-2.246;2023-07-16T06:47:16;13.43;;;1.88;;
80332;SDS011;69652;51.864;-2.246;2023-07-16T06:49:41;11.88;;;2.50;;
80332;SDS011;69652;51.864;-2.246;2023-07-16T06:52:07;13.32;;;2.55;;
80332;SDS011;69652;51.864;-2.246;2023-07-16T06:54:33;12.93;;;2.30;;
80332;SDS011;69652;51.864;-2.246;2023-07-16T06:56:59;10.48;;;1.88;;
80332;SDS011;69652;51.864;-2.246;2023-07-16T06:59:25;12.50;;;2.00;;
80332;SDS011;69652;51.864;-2.246;2023-07-16T07:01:50;9.05;;;1.90;;
80332;SDS011;69652;51.864;-2.246;2023-07-16T07:04:16;13.40;;;1.92;;
80332;SDS011;69652;51.864;-2.246;2023-07-16T07:06:41;8.48;;;2.35;;
80332;SDS011;69652;51.864;-2.246;2023-07-16T07:09:07;9.77;;;1.80;;
80332;SDS011;69652;51.864;-2.246;2023-07-16T07:11:32;10.10;;;1.92;;
80332;SDS011;69652;51.864;-2.246;2023-07-16T07:13:58;9.57;;;2.05;;
80332;SDS011;69652;51.864;-2.246;2023-07-16T07:16:23;15.23;;;2.67;;
80332;SDS011;69652;51.864;-2.246;2023-07-16T07:18:49;17.42;;;2.25;;
80332;SDS011;69652;51.864;-2.246;2023-07-16T07:21:15;11.82;;;3.35;;
80332;SDS011;69652;51.864;-2.246;2023-07-16T07:23:40;11.15;;;2.03;;
80332;SDS011;69652;51.864;-2.246;2023-07-16T07:26:05;11.25;;;2.05;;
80332;SDS011;69652;51.864;-2.246;2023-07-16T07:28:31;9.00;;;2.58;;
80332;SDS011;69652;51.864;-2.246;2023-07-16T07:30:56;10.35;;;2.58;;
80332;SDS011;69652;51.864;-2.246;2023-07-16T07:33:22;10.23;;;2.03;;
80332;SDS011;69652;51.864;-2.246;2023-07-16T07:35:47;15.43;;;2.53;;
80332;SDS011;69652;51.864;-2.246;2023-07-16T07:38:13;13.45;;;2.03;;
80332;SDS011;69652;51.864;-2.246;2023-07-16T07:40:38;9.63;;;1.90;;
80332;SDS011;69652;51.864;-2.246;2023-07-16T07:43:04;9.18;;;2.25;;
80332;SDS011;69652;51.864;-2.246;2023-07-16T07:45:29;9.48;;;1.70;;
80332;SDS011;69652;51.864;-2.246;2023-07-16T07:47:55;9.70;;;1.70;;
80332;SDS011;69652;51.864;-2.246;2023-07-16T07:50:20;11.98;;;2.17;;
80332;SDS011;69652;51.864;-2.246;2023-07-16T07:52:46;11.30;;;1.80;;
80332;SDS011;69652;51.864;-2.246;2023-07-16T07:55:11;8.75;;;1.67;;
80332;SDS011;69652;51.864;-2.246;2023-07-16T07:57:37;10.25;;;2.13;;
80332;SDS011;69652;51.864;-2.246;2023-07-16T08:00:02;14.15;;;2.20;;
80332;SDS011;69652;51.864;-2.246;2023-07-16T08:02:29;13.32;;;2.03;;
80332;SDS011;69652;51.864;-2.246;2023-07-16T08:04:54;11.32;;;2.63;;
80332;SDS011;69652;51.864;-2.246;2023-07-16T08:07:21;10.48;;;1.95;;
80332;SDS011;69652;51.864;-2.246;2023-07-16T08:09:47;9.45;;;1.58;;
80332;SDS011;69652;51.864;-2.246;2023-07-16T08:12:13;9.20;;;1.63;;
80332;SDS011;69652;51.864;-2.246;2023-07-16T08:14:39;5.40;;;1.38;;
80332;SDS011;69652;51.864;-2.246;2023-07-16T08:17:06;6.72;;;1.35;;
80332;SDS011;69652;51.864;-2.246;2023-07-16T08:19:32;9.20;;;1.23;;
80332;SDS011;69652;51.864;-2.246;2023-07-16T08:21:57;6.72;;;1.60;;
80332;SDS011;69652;51.864;-2.246;2023-07-16T08:24:24;6.03;;;1.45;;
80332;SDS011;69652;51.864;-2.246;2023-07-16T08:26:50;7.60;;;1.92;;
80332;SDS011;69652;51.864;-2.246;2023-07-16T08:29:15;9.35;;;2.03;;
80332;SDS011;69652;51.864;-2.246;2023-07-16T08:31:41;6.38;;;1.60;;
80332;SDS011;69652;51.864;-2.246;2023-07-16T08:34:06;7.43;;;1.85;;
80332;SDS011;69652;51.864;-2.246;2023-07-16T08:36:35;8.50;;;1.63;;
80332;SDS011;69652;51.864;-2.246;2023-07-16T08:39:01;5.30;;;1.23;;
80332;SDS011;69652;51.864;-2.246;2023-07-16T08:41:27;7.10;;;1.38;;
80332;SDS011;69652;51.864;-2.246;2023-07-16T08:43:53;7.57;;;1.40;;
80332;SDS011;69652;51.864;-2.246;2023-07-16T08:46:19;5.10;;;1.20;;
80332;SDS011;69652;51.864;-2.246;2023-07-16T08:48:45;3.22;;;1.00;;
80332;SDS011;69652;51.864;-2.246;2023-07-16T08:51:11;9.05;;;2.10;;
80332;SDS011;69652;51.864;-2.246;2023-07-16T08:53:40;7.18;;;1.52;;
80332;SDS011;69652;51.864;-2.246;2023-07-16T08:56:05;5.40;;;1.30;;
80332;SDS011;69652;51.864;-2.246;2023-07-16T08:58:31;5.80;;;1.08;;
80332;SDS011;69652;51.864;-2.246;2023-07-16T09:00:58;6.13;;;1.20;;
80332;SDS011;69652;51.864;-2.246;2023-07-16T09:03:25;4.47;;;1.02;;
80332;SDS011;69652;51.864;-2.246;2023-07-16T09:05:51;8.23;;;1.85;;
80332;SDS011;69652;51.864;-2.246;2023-07-16T09:08:18;8.02;;;1.67;;
80332;SDS011;69652;51.864;-2.246;2023-07-16T09:10:43;5.13;;;1.10;;
80332;SDS011;69652;51.864;-2.246;2023-07-16T09:13:09;3.55;;;1.10;;
80332;SDS011;69652;51.864;-2.246;2023-07-16T09:15:35;5.38;;;1.20;;
80332;SDS011;69652;51.864;-2.246;2023-07-16T09:18:02;3.25;;;0.90;;
80332;SDS011;69652;51.864;-2.246;2023-07-16T09:20:29;4.30;;;1.23;;
80332;SDS011;69652;51.864;-2.246;2023-07-16T09:22:56;4.70;;;1.00;;
80332;SDS011;69652;51.864;-2.246;2023-07-16T09:25:29;6.47;;;1.40;;
80332;SDS011;69652;51.864;-2.246;2023-07-16T09:27:57;5.45;;;1.08;;
80332;SDS011;69652;51.864;-2.246;2023-07-16T09:30:23;5.47;;;0.95;;
80332;SDS011;69652;51.864;-2.246;2023-07-16T09:32:48;2.72;;;0.80;;
80332;SDS011;69652;51.864;-2.246;2023-07-16T09:35:15;4.30;;;0.90;;
80332;SDS011;69652;51.864;-2.246;2023-07-16T09:37:42;4.03;;;0.73;;
80332;SDS011;69652;51.864;-2.246;2023-07-16T09:40:09;5.75;;;0.82;;
80332;SDS011;69652;51.864;-2.246;2023-07-16T09:42:39;5.95;;;0.82;;
80332;SDS011;69652;51.864;-2.246;2023-07-16T09:45:07;4.35;;;1.15;;
80332;SDS011;69652;51.864;-2.246;2023-07-16T09:47:42;6.13;;;1.00;;
80332;SDS011;69652;51.864;-2.246;2023-07-16T09:50:08;5.57;;;0.95;;
80332;SDS011;69652;51.864;-2.246;2023-07-16T09:52:34;4.65;;;0.80;;
80332;SDS011;69652;51.864;-2.246;2023-07-16T09:55:03;4.65;;;1.08;;
80332;SDS011;69652;51.864;-2.246;2023-07-16T09:57:35;4.10;;;0.80;;
80332;SDS011;69652;51.864;-2.246;2023-07-16T10:00:13;3.78;;;0.95;;
80332;SDS011;69652;51.864;-2.246;2023-07-16T10:02:42;4.10;;;0.73;;
80332;SDS011;69652;51.864;-2.246;2023-07-16T10:05:16;4.30;;;0.90;;
80332;SDS011;69652;51.864;-2.246;2023-07-16T10:07:53;6.10;;;0.98;;
80332;SDS011;69652;51.864;-2.246;2023-07-16T10:10:19;6.38;;;1.00;;
80332;SDS011;69652;51.864;-2.246;2023-07-16T10:15:30;4.18;;;0.80;;
80332;SDS011;69652;51.864;-2.246;2023-07-16T10:17:56;5.10;;;1.10;;
80332;SDS011;69652;51.864;-2.246;2023-07-16T10:20:28;5.40;;;1.23;;
80332;SDS011;69652;51.864;-2.246;2023-07-16T10:23:11;5.30;;;1.13;;
80332;SDS011;69652;51.864;-2.246;2023-07-16T10:25:38;5.38;;;1.20;;
80332;SDS011;69652;51.864;-2.246;2023-07-16T10:28:04;6.72;;;0.90;;
80332;SDS011;69652;51.864;-2.246;2023-07-16T10:30:30;7.43;;;1.10;;
80332;SDS011;69652;51.864;-2.246;2023-07-16T10:32:55;5.35;;;1.20;;
80332;SDS011;69652;51.864;-2.246;2023-07-16T10:35:21;6.80;;;1.30;;
80332;SDS011;69652;51.864;-2.246;2023-07-16T10:37:47;5.50;;;1.20;;
80332;SDS011;69652;51.864;-2.246;2023-07-16T10:40:13;5.72;;;1.10;;
80332;SDS011;69652;51.864;-2.246;2023-07-16T10:42:41;7.82;;;0.95;;
80332;SDS011;69652;51.864;-2.246;2023-07-16T10:45:11;3.92;;;1.10;;
80332;SDS011;69652;51.864;-2.246;2023-07-16T10:47:38;3.72;;;1.00;;
80332;SDS011;69652;51.864;-2.246;2023-07-16T10:50:05;3.38;;;0.93;;
80332;SDS011;69652;51.864;-2.246;2023-07-16T10:52:35;4.07;;;1.10;;
80332;SDS011;69652;51.864;-2.246;2023-07-16T10:55:02;3.65;;;1.10;;
80332;SDS011;69652;51.864;-2.246;2023-07-16T10:57:28;3.88;;;1.45;;
80332;SDS011;69652;51.864;-2.246;2023-07-16T10:59:55;2.90;;;1.10;;
80332;SDS011;69652;51.864;-2.246;2023-07-16T11:02:21;1.63;;;0.57;;
80332;SDS011;69652;51.864;-2.246;2023-07-16T11:04:49;2.05;;;0.68;;
80332;SDS011;69652;51.864;-2.246;2023-07-16T11:07:15;3.15;;;0.50;;
80332;SDS011;69652;51.864;-2.246;2023-07-16T11:09:44;2.55;;;0.60;;
80332;SDS011;69652;51.864;-2.246;2023-07-16T11:12:13;3.95;;;0.73;;
80332;SDS011;69652;51.864;-2.246;2023-07-16T11:14:48;4.30;;;1.15;;
80332;SDS011;69652;51.864;-2.246;2023-07-16T11:17:15;5.25;;;1.48;;
80332;SDS011;69652;51.864;-2.246;2023-07-16T11:19:44;4.53;;;1.38;;
80332;SDS011;69652;51.864;-2.246;2023-07-16T11:22:10;9.32;;;1.25;;
80332;SDS011;69652;51.864;-2.246;2023-07-16T11:24:43;7.95;;;0.93;;
80332;SDS011;69652;51.864;-2.246;2023-07-16T11:27:15;6.22;;;0.93;;
80332;SDS011;69652;51.864;-2.246;2023-07-16T11:29:54;8.13;;;1.85;;
80332;SDS011;69652;51.864;-2.246;2023-07-16T11:35:12;7.28;;;1.35;;
80332;SDS011;69652;51.864;-2.246;2023-07-16T11:37:41;7.32;;;1.20;;
80332;SDS011;69652;51.864;-2.246;2023-07-16T11:40:08;5.20;;;0.95;;
80332;SDS011;69652;51.864;-2.246;2023-07-16T11:42:36;4.53;;;0.98;;
80332;SDS011;69652;51.864;-2.246;2023-07-16T11:45:03;10.98;;;2.65;;
80332;SDS011;69652;51.864;-2.246;2023-07-16T11:47:30;8.68;;;3.72;;
80332;SDS011;69652;51.864;-2.246;2023-07-16T11:49:56;3.83;;;1.10;;
80332;SDS011;69652;51.864;-2.246;2023-07-16T11:52:23;6.40;;;1.58;;
80332;SDS011;69652;51.864;-2.246;2023-07-16T11:54:51;7.78;;;1.50;;
80332;SDS011;69652;51.864;-2.246;2023-07-16T11:57:17;9.02;;;1.80;;
80332;SDS011;69652;51.864;-2.246;2023-07-16T11:59:43;9.88;;;1.77;;
80332;SDS011;69652;51.864;-2.246;2023-07-16T12:02:09;9.70;;;3.85;;
80332;SDS011;69652;51.864;-2.246;2023-07-16T12:04:34;7.35;;;1.98;;
80332;SDS011;69652;51.864;-2.246;2023-07-16T12:07:00;7.90;;;1.98;;
80332;SDS011;69652;51.864;-2.246;2023-07-16T12:09:25;10.32;;;2.58;;
80332;SDS011;69652;51.864;-2.246;2023-07-16T12:11:51;5.50;;;1.88;;
80332;SDS011;69652;51.864;-2.246;2023-07-16T12:14:16;6.70;;;1.40;;
80332;SDS011;69652;51.864;-2.246;2023-07-16T12:16:42;7.50;;;1.35;;
80332;SDS011;69652;51.864;-2.246;2023-07-16T12:19:08;21.23;;;7.20;;
80332;SDS011;69652;51.864;-2.246;2023-07-16T12:21:34;7.45;;;2.38;;
80332;SDS011;69652;51.864;-2.246;2023-07-16T12:23:59;13.68;;;2.97;;
80332;SDS011;69652;51.864;-2.246;2023-07-16T12:26:25;6.95;;;1.98;;
80332;SDS011;69652;51.864;-2.246;2023-07-16T12:28:50;10.30;;;1.75;;
80332;SDS011;69652;51.864;-2.246;2023-07-16T12:31:15;6.65;;;1.30;;
80332;SDS011;69652;51.864;-2.246;2023-07-16T12:33:42;7.32;;;1.50;;
80332;SDS011;69652;51.864;-2.246;2023-07-16T12:36:08;6.72;;;1.92;;
80332;SDS011;69652;51.864;-2.246;2023-07-16T12:38:33;11.15;;;2.78;;
80332;SDS011;69652;51.864;-2.246;2023-07-16T12:40:59;7.95;;;1.88;;
80332;SDS011;69652;51.864;-2.246;2023-07-16T12:43:24;11.80;;;1.85;;
80332;SDS011;69652;51.864;-2.246;2023-07-16T12:45:50;8.82;;;1.10;;
80332;SDS011;69652;51.864;-2.246;2023-07-16T12:48:15;7.80;;;1.63;;
80332;SDS011;69652;51.864;-2.246;2023-07-16T12:50:41;7.63;;;1.50;;
80332;SDS011;69652;51.864;-2.246;2023-07-16T12:53:06;13.90;;;3.15;;
80332;SDS011;69652;51.864;-2.246;2023-07-16T12:55:32;9.77;;;1.33;;
80332;SDS011;69652;51.864;-2.246;2023-07-16T12:57:59;6.45;;;1.17;;
80332;SDS011;69652;51.864;-2.246;2023-07-16T13:00:24;10.95;;;1.42;;
80332;SDS011;69652;51.864;-2.246;2023-07-16T13:02:50;5.88;;;1.23;;
80332;SDS011;69652;51.864;-2.246;2023-07-16T13:05:15;6.82;;;1.35;;
80332;SDS011;69652;51.864;-2.246;2023-07-16T13:07:41;6.72;;;1.25;;
80332;SDS011;69652;51.864;-2.246;2023-07-16T13:10:07;6.55;;;1.27;;
80332;SDS011;69652;51.864;-2.246;2023-07-16T13:12:33;5.40;;;0.95;;
80332;SDS011;69652;51.864;-2.246;2023-07-16T13:14:58;7.10;;;2.17;;
80332;SDS011;69652;51.864;-2.246;2023-07-16T13:17:24;7.32;;;1.40;;
80332;SDS011;69652;51.864;-2.246;2023-07-16T13:19:49;4.22;;;0.95;;
80332;SDS011;69652;51.864;-2.246;2023-07-16T13:22:15;4.65;;;1.08;;
80332;SDS011;69652;51.864;-2.246;2023-07-16T13:24:40;6.35;;;0.80;;
80332;SDS011;69652;51.864;-2.246;2023-07-16T13:27:06;6.55;;;1.02;;
80332;SDS011;69652;51.864;-2.246;2023-07-16T13:29:35;8.25;;;1.27;;
80332;SDS011;69652;51.864;-2.246;2023-07-16T13:32:00;5.95;;;1.35;;
80332;SDS011;69652;51.864;-2.246;2023-07-16T13:34:26;4.43;;;1.20;;
80332;SDS011;69652;51.864;-2.246;2023-07-16T13:36:51;13.48;;;1.35;;
80332;SDS011;69652;51.864;-2.246;2023-07-16T13:39:17;9.13;;;1.50;;
80332;SDS011;69652;51.864;-2.246;2023-07-16T13:41:42;8.93;;;2.13;;
80332;SDS011;69652;51.864;-2.246;2023-07-16T13:44:08;7.35;;;1.60;;
80332;SDS011;69652;51.864;-2.246;2023-07-16T13:46:33;5.38;;;1.30;;
80332;SDS011;69652;51.864;-2.246;2023-07-16T13:48:59;8.98;;;2.28;;
80332;SDS011;69652;51.864;-2.246;2023-07-16T13:51:25;7.20;;;1.58;;
80332;SDS011;69652;51.864;-2.246;2023-07-16T13:53:51;11.25;;;2.20;;
80332;SDS011;69652;51.864;-2.246;2023-07-16T13:56:17;7.18;;;1.67;;
80332;SDS011;69652;51.864;-2.246;2023-07-16T13:58:42;8.18;;;2.10;;
80332;SDS011;69652;51.864;-2.246;2023-07-16T14:01:08;6.07;;;1.10;;
80332;SDS011;69652;51.864;-2.246;2023-07-16T14:03:33;6.80;;;1.20;;
80332;SDS011;69652;51.864;-2.246;2023-07-16T14:05:58;8.25;;;2.42;;
80332;SDS011;69652;51.864;-2.246;2023-07-16T14:08:24;6.53;;;2.03;;
80332;SDS011;69652;51.864;-2.246;2023-07-16T14:10:49;10.18;;;2.05;;
80332;SDS011;69652;51.864;-2.246;2023-07-16T14:13:15;9.40;;;2.33;;
80332;SDS011;69652;51.864;-2.246;2023-07-16T14:15:41;7.50;;;1.38;;
80332;SDS011;69652;51.864;-2.246;2023-07-16T14:18:07;5.95;;;1.15;;
80332;SDS011;69652;51.864;-2.246;2023-07-16T14:20:33;9.80;;;1.95;;
80332;SDS011;69652;51.864;-2.246;2023-07-16T14:22:58;9.25;;;2.35;;
80332;SDS011;69652;51.864;-2.246;2023-07-16T14:25:24;6.72;;;2.00;;
80332;SDS011;69652;51.864;-2.246;2023-07-16T14:27:49;9.18;;;2.53;;
80332;SDS011;69652;51.864;-2.246;2023-07-16T14:30:15;8.85;;;1.77;;
80332;SDS011;69652;51.864;-2.246;2023-07-16T14:32:40;14.63;;;3.63;;
80332;SDS011;69652;51.864;-2.246;2023-07-16T14:35:07;5.32;;;1.23;;
80332;SDS011;69652;51.864;-2.246;2023-07-16T14:37:33;7.90;;;1.50;;
80332;SDS011;69652;51.864;-2.246;2023-07-16T14:39:58;12.07;;;2.00;;